createdAt,value
2022-10-20T00:05:24.665Z,3.63
2022-10-20T00:11:28.575Z,4.07
2022-10-20T00:17:30.815Z,3.38
2022-10-20T00:23:32.888Z,2.95
2022-10-20T00:29:35.556Z,2.92
2022-10-20T00:35:39.465Z,2.58
2022-10-20T00:41:41.908Z,2.83
2022-10-20T00:47:46.855Z,3.50
2022-10-20T00:53:51.749Z,3.28
2022-10-20T00:59:54.615Z,2.90
2022-10-20T01:05:56.969Z,3.20
2022-10-20T01:12:11.045Z,3.08
2022-10-20T01:18:35.868Z,2.80
2022-10-20T01:25:07.937Z,3.35
2022-10-20T01:31:22.466Z,2.60
2022-10-20T01:37:48.837Z,3.03
2022-10-20T01:43:52.961Z,3.88
2022-10-20T01:49:57.208Z,3.03
2022-10-20T01:56:00.851Z,2.55
2022-10-20T02:02:46.345Z,3.20
2022-10-20T02:08:52.667Z,2.78
2022-10-20T02:14:55.726Z,2.90
2022-10-20T02:21:01.015Z,3.00
2022-10-20T02:27:09.095Z,2.83
2022-10-20T02:33:12.987Z,3.22
2022-10-20T02:39:15.194Z,2.78
2022-10-20T02:45:17.811Z,3.05
2022-10-20T02:51:20.131Z,3.22
2022-10-20T02:57:22.367Z,3.20
2022-10-20T03:03:24.608Z,3.97
2022-10-20T03:09:26.933Z,4.13
2022-10-20T03:15:29.320Z,3.63
2022-10-20T03:21:31.572Z,3.45
2022-10-20T03:27:34.055Z,3.40
2022-10-20T03:39:38.447Z,3.47
2022-10-20T03:45:40.592Z,3.93
2022-10-20T03:51:42.782Z,2.90
2022-10-20T03:57:45.071Z,3.95
2022-10-20T04:03:47.330Z,4.07
2022-10-20T04:09:50.224Z,3.63
2022-10-20T04:21:54.373Z,3.65
2022-10-20T04:27:56.489Z,3.40
2022-10-20T04:33:58.819Z,3.97
2022-10-20T04:40:01.074Z,3.23
2022-10-20T04:46:08.302Z,3.08
2022-10-20T04:52:11.323Z,3.30
2022-10-20T04:58:13.450Z,2.90
2022-10-20T05:04:21.711Z,3.47
2022-10-20T05:10:23.811Z,2.90
2022-10-20T05:16:26.215Z,2.77
2022-10-20T05:22:30.993Z,4.80
2022-10-20T05:28:33.351Z,3.13
2022-10-20T05:34:35.871Z,2.45
2022-10-20T05:40:38.083Z,3.60
2022-10-20T05:46:41.935Z,3.13
2022-10-20T05:52:44.261Z,2.63
2022-10-20T05:58:48.121Z,2.13
2022-10-20T06:04:50.297Z,1.80
2022-10-20T06:10:52.467Z,2.13
2022-10-20T06:16:55.475Z,2.23
2022-10-20T06:22:57.455Z,2.45
2022-10-20T06:29:04.408Z,2.50
2022-10-20T06:35:07.329Z,2.95
2022-10-20T06:41:12.635Z,2.63
2022-10-20T06:47:14.873Z,2.40
2022-10-20T06:53:17.142Z,2.08
2022-10-20T06:59:19.299Z,2.00
2022-10-20T07:05:22.302Z,1.73
2022-10-20T07:11:27.427Z,1.50
2022-10-20T07:17:30.172Z,1.92
2022-10-20T07:23:33.113Z,1.75
2022-10-20T07:29:35.192Z,1.88
2022-10-20T07:41:41.019Z,1.92
2022-10-20T07:47:46.916Z,1.58
2022-10-20T07:53:50.200Z,2.60
2022-10-20T08:05:54.521Z,2.42
2022-10-20T08:11:56.868Z,2.72
2022-10-20T08:17:59.098Z,2.30
2022-10-20T08:24:02.934Z,1.52
2022-10-20T08:30:22.846Z,2.45
2022-10-20T08:36:26.668Z,2.50
2022-10-20T08:42:28.945Z,1.60
2022-10-20T08:48:34.279Z,1.73
2022-10-20T08:54:36.426Z,1.65
2022-10-20T09:00:39.642Z,1.83
2022-10-20T09:06:45.281Z,1.95
2022-10-20T09:12:48.395Z,1.60
2022-10-20T09:18:55.983Z,3.60
2022-10-20T09:24:59.511Z,2.03
2022-10-20T09:31:01.777Z,1.85
2022-10-20T09:37:07.228Z,1.90
2022-10-20T09:43:17.332Z,1.45
2022-10-20T09:49:27.634Z,1.50
2022-10-20T09:55:42.435Z,1.77
2022-10-20T10:02:16.919Z,2.85
2022-10-20T10:08:20.751Z,1.60
2022-10-20T10:14:24.031Z,1.50
2022-10-20T10:20:29.620Z,1.55
2022-10-20T10:26:37.752Z,1.73
2022-10-20T10:32:44.376Z,2.90
2022-10-20T10:38:46.631Z,1.38
2022-10-20T10:45:12.172Z,1.40
2022-10-20T10:51:42.010Z,1.60
2022-10-20T10:57:51.839Z,1.67
2022-10-20T11:04:12.514Z,1.73
2022-10-20T11:10:45.940Z,2.03
2022-10-20T11:16:54.867Z,1.88
2022-10-20T11:23:25.170Z,1.83
2022-10-20T11:29:40.400Z,2.53
2022-10-20T11:35:54.378Z,1.90
2022-10-20T11:42:03.937Z,2.15
2022-10-20T11:48:18.053Z,1.92
2022-10-20T11:54:26.167Z,2.25
2022-10-20T12:00:58.871Z,3.92
2022-10-20T12:13:28.770Z,2.00
2022-10-20T12:19:35.321Z,2.15
2022-10-20T12:25:40.801Z,1.90
2022-10-20T12:32:21.438Z,1.83
2022-10-20T12:38:23.730Z,2.13
2022-10-20T12:44:29.516Z,2.60
2022-10-20T12:50:38.847Z,2.05
2022-10-20T12:56:42.195Z,1.60
2022-10-20T13:02:51.612Z,2.55
2022-10-20T13:09:10.567Z,2.47
2022-10-20T13:15:15.997Z,2.45
2022-10-20T13:21:31.612Z,3.03
2022-10-20T13:27:33.760Z,2.00
2022-10-20T13:40:23.397Z,2.58
2022-10-20T13:46:50.790Z,2.83
2022-10-20T13:52:56.609Z,3.45
2022-10-20T13:59:05.280Z,2.47
2022-10-20T14:05:12.679Z,3.05
2022-10-20T14:11:15.265Z,2.67
2022-10-20T14:17:24.772Z,2.47
2022-10-20T14:23:28.555Z,2.20
2022-10-20T14:29:33.879Z,2.60
2022-10-20T14:35:43.547Z,2.78
2022-10-20T14:41:46.891Z,2.72
2022-10-20T14:47:50.286Z,3.58
2022-10-20T14:53:52.518Z,3.95
2022-10-20T15:00:07.261Z,4.25
2022-10-20T15:06:16.824Z,3.35
2022-10-20T15:12:45.719Z,3.55
2022-10-20T15:18:47.731Z,2.90
2022-10-20T15:24:50.327Z,3.90
2022-10-20T15:30:52.628Z,3.72
2022-10-20T15:36:55.109Z,3.55
2022-10-20T15:43:00.094Z,3.28
2022-10-20T15:49:02.165Z,3.27
2022-10-20T15:55:25.497Z,4.23
2022-10-20T16:01:28.501Z,3.63
2022-10-20T16:07:30.737Z,3.53
2022-10-20T16:13:33.808Z,5.05
2022-10-20T16:19:35.790Z,2.45
2022-10-20T16:25:40.863Z,3.90
2022-10-20T16:31:42.853Z,3.40
2022-10-20T16:37:44.890Z,4.27
2022-10-20T16:43:47.240Z,4.20
2022-10-20T16:49:49.925Z,4.68
2022-10-20T16:55:55.835Z,3.78
2022-10-20T17:01:58.132Z,4.50
2022-10-20T17:08:00.310Z,6.93
2022-10-20T17:14:02.441Z,4.90
2022-10-20T17:20:04.758Z,4.40
2022-10-20T17:26:08.017Z,5.22
2022-10-20T17:32:13.189Z,7.35
2022-10-20T17:38:17.834Z,5.35
2022-10-20T17:44:20.002Z,7.10
2022-10-20T17:50:22.263Z,8.65
2022-10-20T17:56:34.658Z,5.13
2022-10-20T18:02:36.849Z,4.77
2022-10-20T18:08:39.617Z,4.50
2022-10-20T18:14:41.863Z,5.40
2022-10-20T18:20:44.078Z,5.97
2022-10-20T18:26:47.195Z,5.00
2022-10-20T18:32:49.341Z,5.90
2022-10-20T18:38:53.542Z,6.03
2022-10-20T18:44:55.695Z,5.90
2022-10-20T18:51:00.269Z,7.00
2022-10-20T18:57:02.382Z,6.15
2022-10-20T19:03:08.129Z,6.50
2022-10-20T19:09:14.763Z,4.70
2022-10-20T19:15:17.557Z,3.22
2022-10-20T19:27:42.806Z,3.43
2022-10-20T19:33:46.044Z,3.33
2022-10-20T19:39:48.132Z,4.10
2022-10-20T19:45:50.125Z,2.40
2022-10-20T19:51:52.914Z,2.77
2022-10-20T19:57:55.527Z,2.78
2022-10-20T20:03:58.977Z,1.85
2022-10-20T20:10:01.322Z,2.10
2022-10-20T20:16:07.827Z,2.20
2022-10-20T20:22:10.061Z,2.20
2022-10-20T20:28:13.193Z,1.50
2022-10-20T20:34:15.703Z,1.48
2022-10-20T20:40:20.472Z,1.65
2022-10-20T20:46:25.069Z,1.35
2022-10-20T20:52:29.598Z,1.80
2022-10-20T20:58:32.452Z,2.13
2022-10-20T21:10:36.990Z,1.55
2022-10-20T21:16:39.144Z,1.80
2022-10-20T21:22:41.402Z,1.67
2022-10-20T21:28:44.066Z,1.40
2022-10-20T21:34:46.627Z,1.80
2022-10-20T21:40:48.580Z,1.55
2022-10-20T21:46:52.215Z,1.77
2022-10-20T21:52:54.211Z,1.00
2022-10-20T21:58:56.677Z,1.30
2022-10-20T22:04:58.871Z,1.38
2022-10-20T22:11:11.843Z,1.73
2022-10-20T22:17:16.938Z,2.00
2022-10-20T22:23:19.238Z,1.08
2022-10-20T22:29:22.605Z,1.67
2022-10-20T22:35:24.695Z,1.27
2022-10-20T22:41:26.953Z,1.37
2022-10-20T22:47:29.111Z,0.88
2022-10-20T22:53:31.413Z,1.87
2022-10-20T22:59:33.701Z,1.90
2022-10-20T23:05:36.378Z,2.13
2022-10-20T23:11:38.820Z,1.55
2022-10-20T23:17:41.294Z,1.85
2022-10-20T23:23:44.328Z,3.72
2022-10-20T23:29:46.395Z,1.42
2022-10-20T23:35:48.609Z,1.53
2022-10-20T23:41:51.002Z,1.80
2022-10-20T23:47:53.368Z,1.83
2022-10-20T23:53:56.606Z,1.83
2022-10-20T23:59:58.976Z,1.58
